DTW weather

Detroit Metropolitan Wayne County Airport
Detroit, Michigan, United States

Public forecast

Using degrees Fahrenheit for public forecast. Weather courtesy of forecast.io.

METAR (pilot weather report)

Retrieved 2019/03/24 21:53 UTC (1 hour ago):

KDTW 242153Z 26009KT 10SM FEW050 BKN070 BKN110 11/M03 A3006 RMK AO2 SLP183 VIRGA SE T01061033

TAF (pilot weather forecast)

Retrieved 2019/03/24 18:22 UTC (5 hours ago):

TAF KDTW 241720Z 2418/2524 22008KT P6SM SCT070 OVC120 FM242000 24011KT P6SM BKN045 OVC100 FM250300 02012G20KT P6SM BKN028 OVC060 FM250700 01012KT P6SM SCT040 FM251400 35010KT P6SM SKC